Kamikawa Maru — JG5687 — position and weather

sailwx.info

Track history (hours):
 
Tides and Currents Weather Stations Pressure Air Temp Water Temp Dewpoint Dewpoint Depression Visibility Wind Speed Wind Dir Waves Ship Positions

Kamikawa Maru

Last reported at 2017-May-23 13:29 UTC. Time now 2017-May-27 13:53 UTC.
Position N 34°52' E 139°48'.

Length 162 m; draft 6.8 m.

Type: Cargo ship. MMSI: 431101012.

Date/timePositionNaut miles runAvg speedWind from/ knotsBaromVisibWave heightAir tempDewpointWater temp
2017-May-23 13:29N 34°52' E 139°48'918.6
2017-May-23 13:00N 34°60' E 139°43'1019.3
2017-May-23 12:30N 35°09' E 139°45'1212.0
2017-May-23 11:32N 35°21' E 139°43'013.4
2017-May-23 11:30N 35°21' E 139°43'917.7
2017-May-23 11:00N 35°28' E 139°50'714.3
2017-May-23 10:30N 35°35' E 139°49'4 7.8
2017-May-23 09:59N 35°38' E 139°46'0 0.0
2017-May-23 09:29N 35°38' E 139°46'0 0.0
2017-May-23 08:47N 35°38' E 139°46'0 0.0
2017-May-23 08:26N 35°38' E 139°46'0 0.0
2017-May-23 07:59N 35°38' E 139°46'0 0.0
2017-May-23 07:17N 35°38' E 139°46'0 0.0
2017-May-23 06:56N 35°38' E 139°46'0 0.0
2017-May-23 06:29N 35°38' E 139°46'0 0.0
2017-May-23 05:56N 35°38' E 139°46'0 0.0
2017-May-23 05:29N 35°38' E 139°46'0 0.0
2017-May-23 04:17N 35°38' E 139°46'0 0.0
2017-May-23 03:56N 35°38' E 139°46'0 0.0
2017-May-23 03:26N 35°38' E 139°46'0 0.0
2017-May-23 02:50N 35°38' E 139°46'0 0.0
2017-May-23 02:29N 35°38' E 139°46'0 0.0
2017-May-22 23:53N 35°38' E 139°46'0 0.2
2017-May-22 23:30N 35°38' E 139°46'5 9.2
2017-May-22 23:00N 35°34' E 139°49'4 6.5
2017-May-22 22:26N 35°33' E 139°53'0 0.0
2017-May-22 21:53N 35°33' E 139°53'0 0.1
2017-May-22 21:26N 35°33' E 139°53'0 0.0
2017-May-22 20:53N 35°33' E 139°53'0 0.0
2017-May-22 20:20N 35°33' E 139°53'0 0.1
2017-May-22 19:59N 35°33' E 139°53'3 6.5
2017-May-22 19:30N 35°30' E 139°52'816.9
2017-May-22 19:00N 35°23' E 139°46'611.6
2017-May-22 18:30N 35°18' E 139°45'612.0
2017-May-22 18:00N 35°12' E 139°47'918.6
2017-May-22 17:30N 35°03' E 139°43'1020.0
2017-May-22 17:00N 34°57' E 139°33'1019.7
2017-May-22 16:30N 34°51' E 139°24'41 1.4
2017-May-21 11:58N 34°32' E 138°39'4518.0
2017-May-21 09:26N 34°55' E 139°26'818.5
2017-May-21 09:00N 35°00' E 139°34'919.0
2017-May-21 08:30N 35°06' E 139°43'816.2
2017-May-21 08:00N 35°14' E 139°46'611.9
2017-May-21 07:30N 35°19' E 139°43'815.5
2017-May-21 07:00N 35°27' E 139°46'815.3
2017-May-21 06:30N 35°34' E 139°49'510.1
2017-May-21 06:00N 35°38' E 139°46'0 0.0
2017-May-21 05:30N 35°38' E 139°46'0 0.0
2017-May-21 04:57N 35°38' E 139°46'0 0.0
2017-May-21 04:30N 35°38' E 139°46'0 0.0
2017-May-21 04:00N 35°38' E 139°46'0 0.0
2017-May-21 03:30N 35°38' E 139°46'0 0.0
2017-May-21 02:54N 35°38' E 139°46'0 0.0
2017-May-21 02:30N 35°38' E 139°46'0 0.0
2017-May-21 01:54N 35°38' E 139°46'0 0.0
2017-May-21 01:30N 35°38' E 139°46'0 0.0
2017-May-21 01:00N 35°38' E 139°46'0 0.0
2017-May-21 00:27N 35°38' E 139°46'0 0.0
2017-May-21 00:00N 35°38' E 139°46'0 0.2
2017-May-20 23:30N 35°38' E 139°46'510.0
2017-May-20 23:01N 35°34' E 139°49'612.4
2017-May-20 22:31N 35°28' E 139°50'713.8
2017-May-20 22:00N 35°22' E 139°45'510.2
2017-May-20 21:30N 35°17' E 139°46'611.6
2017-May-20 21:00N 35°11' E 139°47'917.0
2017-May-20 20:29N 35°03' E 139°44'1014.7
2017-May-20 19:50N 34°54' E 139°47'7415.7
2017-May-20 15:09N 35°41' E 140°56'317.4
2017-May-20 14:59N 35°43' E 140°57'918.4
2017-May-20 14:30N 35°52' E 140°60'4118.6
2017-May-20 12:19N 36°32' E 141°07'618.1
2017-May-20 12:00N 36°38' E 141°08'  
2017-May-16 12:16N 35°03' E 139°43'519.0
2017-May-16 12:00N 35°08' E 139°45'815.1
2017-May-16 11:31N 35°16' E 139°46'713.0
2017-May-16 11:01N 35°21' E 139°42'917.4
2017-May-16 10:30N 35°28' E 139°49'714.5
2017-May-16 10:00N 35°35' E 139°47'3 5.6
2017-May-16 09:29N 35°38' E 139°46'0 0.1
2017-May-16 08:58N 35°38' E 139°46'0 0.1
2017-May-16 08:29N 35°38' E 139°46'0 0.1
2017-May-16 07:55N 35°38' E 139°46'0 0.0
2017-May-16 07:25N 35°38' E 139°46'0 0.0
2017-May-16 06:56N 35°38' E 139°46'0 0.0
2017-May-16 06:26N 35°38' E 139°46'0 0.0
2017-May-16 05:55N 35°38' E 139°46'0 0.0
2017-May-16 05:26N 35°38' E 139°46'0 0.0
2017-May-16 04:59N 35°38' E 139°46'0 0.0
2017-May-16 04:23N 35°38' E 139°46'0 0.0
2017-May-16 03:59N 35°38' E 139°46'0 0.1
2017-May-16 03:26N 35°38' E 139°46'0 0.1
2017-May-16 02:55N 35°38' E 139°46'0 0.0
2017-May-16 02:26N 35°38' E 139°46'0 0.0
2017-May-16 01:56N 35°38' E 139°46'0 0.0
2017-May-16 01:26N 35°38' E 139°46'0 0.0
2017-May-16 00:56N 35°38' E 139°46'0 0.0
2017-May-16 00:29N 35°38' E 139°46'0 0.0
2017-May-15 23:56N 35°38' E 139°46'0 0.1
2017-May-15 23:30N 35°38' E 139°46'611.9
2017-May-15 23:00N 35°33' E 139°50'815.2
2017-May-15 22:30N 35°26' E 139°48'713.6
2017-May-15 22:00N 35°20' E 139°44'612.0
2017-May-15 21:30N 35°14' E 139°47'816.0
2017-May-15 21:00N 35°07' E 139°45'1216.9
2017-May-15 20:19N 34°59' E 139°35'517.2
2017-May-15 20:00N 34°56' E 139°29'3 0.1
2017-May-14 08:46N 34°55' E 139°26'619.8
2017-May-14 08:29N 34°58' E 139°31'1020.6
2017-May-14 08:01N 35°05' E 139°40'918.3
2017-May-14 07:31N 35°12' E 139°46'612.0
2017-May-14 07:00N 35°18' E 139°44'714.0
2017-May-14 06:30N 35°25' E 139°44'917.9
2017-May-14 06:00N 35°33' E 139°51'713.4
2017-May-14 05:30N 35°38' E 139°46'0 0.3
2017-May-14 05:00N 35°38' E 139°46'0 0.0
2017-May-14 04:27N 35°38' E 139°46'0 0.0
2017-May-14 03:57N 35°38' E 139°46'0 0.0
2017-May-14 03:27N 35°38' E 139°46'0 0.0
2017-May-14 02:57N 35°38' E 139°46'0 0.0
2017-May-14 02:21N 35°38' E 139°46'0 0.0
2017-May-14 01:54N 35°38' E 139°46'0 0.0
2017-May-14 01:27N 35°38' E 139°46'0 0.0
2017-May-14 00:57N 35°38' E 139°46'0 0.0
2017-May-14 00:27N 35°38' E 139°46'0 0.0
2017-May-14 00:00N 35°38' E 139°46'0 0.2
2017-May-13 23:30N 35°38' E 139°46'612.5
2017-May-13 23:01N 35°33' E 139°51'714.5
2017-May-13 22:31N 35°26' E 139°48'713.2
2017-May-13 22:01N 35°20' E 139°45'611.6
2017-May-13 21:31N 35°15' E 139°47'612.9
2017-May-13 21:01N 35°08' E 139°46'816.5
2017-May-13 20:31N 35°01' E 139°42'  
Track history (hours):
 
Tides and Currents Weather Stations Pressure Air Temp Water Temp Dewpoint Dewpoint Depression Visibility Wind Speed Wind Dir Waves Ship Positions

Kamikawa Maru

Last reported at 2017-May-23 13:29 UTC. Time now 2017-May-27 13:53 UTC.
Position N 34°52' E 139°48'.

Length 162 m; draft 6.8 m.

Type: Cargo ship. MMSI: 431101012.

Date/timePositionNaut miles runAvg speedWind from/ knotsBaromVisibWave heightAir tempDewpointWater temp
2017-May-23 13:29N 34°52' E 139°48'918.6
2017-May-23 13:00N 34°60' E 139°43'1019.3
2017-May-23 12:30N 35°09' E 139°45'1212.0
2017-May-23 11:32N 35°21' E 139°43'013.4
2017-May-23 11:30N 35°21' E 139°43'917.7
2017-May-23 11:00N 35°28' E 139°50'714.3
2017-May-23 10:30N 35°35' E 139°49'4 7.8
2017-May-23 09:59N 35°38' E 139°46'0 0.0
2017-May-23 09:29N 35°38' E 139°46'0 0.0
2017-May-23 08:47N 35°38' E 139°46'0 0.0
2017-May-23 08:26N 35°38' E 139°46'0 0.0
2017-May-23 07:59N 35°38' E 139°46'0 0.0
2017-May-23 07:17N 35°38' E 139°46'0 0.0
2017-May-23 06:56N 35°38' E 139°46'0 0.0
2017-May-23 06:29N 35°38' E 139°46'0 0.0
2017-May-23 05:56N 35°38' E 139°46'0 0.0
2017-May-23 05:29N 35°38' E 139°46'0 0.0
2017-May-23 04:17N 35°38' E 139°46'0 0.0
2017-May-23 03:56N 35°38' E 139°46'0 0.0
2017-May-23 03:26N 35°38' E 139°46'0 0.0
2017-May-23 02:50N 35°38' E 139°46'0 0.0
2017-May-23 02:29N 35°38' E 139°46'0 0.0
2017-May-22 23:53N 35°38' E 139°46'0 0.2
2017-May-22 23:30N 35°38' E 139°46'5 9.2
2017-May-22 23:00N 35°34' E 139°49'4 6.5
2017-May-22 22:26N 35°33' E 139°53'0 0.0
2017-May-22 21:53N 35°33' E 139°53'0 0.1
2017-May-22 21:26N 35°33' E 139°53'0 0.0
2017-May-22 20:53N 35°33' E 139°53'0 0.0
2017-May-22 20:20N 35°33' E 139°53'0 0.1
2017-May-22 19:59N 35°33' E 139°53'3 6.5
2017-May-22 19:30N 35°30' E 139°52'816.9
2017-May-22 19:00N 35°23' E 139°46'611.6
2017-May-22 18:30N 35°18' E 139°45'612.0
2017-May-22 18:00N 35°12' E 139°47'918.6
2017-May-22 17:30N 35°03' E 139°43'1020.0
2017-May-22 17:00N 34°57' E 139°33'1019.7
2017-May-22 16:30N 34°51' E 139°24'41 1.4
2017-May-21 11:58N 34°32' E 138°39'4518.0
2017-May-21 09:26N 34°55' E 139°26'818.5
2017-May-21 09:00N 35°00' E 139°34'919.0
2017-May-21 08:30N 35°06' E 139°43'816.2
2017-May-21 08:00N 35°14' E 139°46'611.9
2017-May-21 07:30N 35°19' E 139°43'815.5
2017-May-21 07:00N 35°27' E 139°46'815.3
2017-May-21 06:30N 35°34' E 139°49'510.1
2017-May-21 06:00N 35°38' E 139°46'0 0.0
2017-May-21 05:30N 35°38' E 139°46'0 0.0
2017-May-21 04:57N 35°38' E 139°46'0 0.0
2017-May-21 04:30N 35°38' E 139°46'0 0.0
2017-May-21 04:00N 35°38' E 139°46'0 0.0
2017-May-21 03:30N 35°38' E 139°46'0 0.0
2017-May-21 02:54N 35°38' E 139°46'0 0.0
2017-May-21 02:30N 35°38' E 139°46'0 0.0
2017-May-21 01:54N 35°38' E 139°46'0 0.0
2017-May-21 01:30N 35°38' E 139°46'0 0.0
2017-May-21 01:00N 35°38' E 139°46'0 0.0
2017-May-21 00:27N 35°38' E 139°46'0 0.0
2017-May-21 00:00N 35°38' E 139°46'0 0.2
2017-May-20 23:30N 35°38' E 139°46'510.0
2017-May-20 23:01N 35°34' E 139°49'612.4
2017-May-20 22:31N 35°28' E 139°50'713.8
2017-May-20 22:00N 35°22' E 139°45'510.2
2017-May-20 21:30N 35°17' E 139°46'611.6
2017-May-20 21:00N 35°11' E 139°47'917.0
2017-May-20 20:29N 35°03' E 139°44'1014.7
2017-May-20 19:50N 34°54' E 139°47'7415.7
2017-May-20 15:09N 35°41' E 140°56'317.4
2017-May-20 14:59N 35°43' E 140°57'918.4
2017-May-20 14:30N 35°52' E 140°60'4118.6
2017-May-20 12:19N 36°32' E 141°07'618.1
2017-May-20 12:00N 36°38' E 141°08'  
2017-May-16 12:16N 35°03' E 139°43'519.0
2017-May-16 12:00N 35°08' E 139°45'815.1
2017-May-16 11:31N 35°16' E 139°46'713.0
2017-May-16 11:01N 35°21' E 139°42'917.4
2017-May-16 10:30N 35°28' E 139°49'714.5
2017-May-16 10:00N 35°35' E 139°47'3 5.6
2017-May-16 09:29N 35°38' E 139°46'0 0.1
2017-May-16 08:58N 35°38' E 139°46'0 0.1
2017-May-16 08:29N 35°38' E 139°46'0 0.1
2017-May-16 07:55N 35°38' E 139°46'0 0.0
2017-May-16 07:25N 35°38' E 139°46'0 0.0
2017-May-16 06:56N 35°38' E 139°46'0 0.0
2017-May-16 06:26N 35°38' E 139°46'0 0.0
2017-May-16 05:55N 35°38' E 139°46'0 0.0
2017-May-16 05:26N 35°38' E 139°46'0 0.0
2017-May-16 04:59N 35°38' E 139°46'0 0.0
2017-May-16 04:23N 35°38' E 139°46'0 0.0
2017-May-16 03:59N 35°38' E 139°46'0 0.1
2017-May-16 03:26N 35°38' E 139°46'0 0.1
2017-May-16 02:55N 35°38' E 139°46'0 0.0
2017-May-16 02:26N 35°38' E 139°46'0 0.0
2017-May-16 01:56N 35°38' E 139°46'0 0.0
2017-May-16 01:26N 35°38' E 139°46'0 0.0
2017-May-16 00:56N 35°38' E 139°46'0 0.0
2017-May-16 00:29N 35°38' E 139°46'0 0.0
2017-May-15 23:56N 35°38' E 139°46'0 0.1
2017-May-15 23:30N 35°38' E 139°46'611.9
2017-May-15 23:00N 35°33' E 139°50'815.2
2017-May-15 22:30N 35°26' E 139°48'713.6
2017-May-15 22:00N 35°20' E 139°44'612.0
2017-May-15 21:30N 35°14' E 139°47'816.0
2017-May-15 21:00N 35°07' E 139°45'1216.9
2017-May-15 20:19N 34°59' E 139°35'517.2
2017-May-15 20:00N 34°56' E 139°29'3 0.1
2017-May-14 08:46N 34°55' E 139°26'619.8
2017-May-14 08:29N 34°58' E 139°31'1020.6
2017-May-14 08:01N 35°05' E 139°40'918.3
2017-May-14 07:31N 35°12' E 139°46'612.0
2017-May-14 07:00N 35°18' E 139°44'714.0
2017-May-14 06:30N 35°25' E 139°44'917.9
2017-May-14 06:00N 35°33' E 139°51'713.4
2017-May-14 05:30N 35°38' E 139°46'0 0.3
2017-May-14 05:00N 35°38' E 139°46'0 0.0
2017-May-14 04:27N 35°38' E 139°46'0 0.0
2017-May-14 03:57N 35°38' E 139°46'0 0.0
2017-May-14 03:27N 35°38' E 139°46'0 0.0
2017-May-14 02:57N 35°38' E 139°46'0 0.0
2017-May-14 02:21N 35°38' E 139°46'0 0.0
2017-May-14 01:54N 35°38' E 139°46'0 0.0
2017-May-14 01:27N 35°38' E 139°46'0 0.0
2017-May-14 00:57N 35°38' E 139°46'0 0.0
2017-May-14 00:27N 35°38' E 139°46'0 0.0
2017-May-14 00:00N 35°38' E 139°46'0 0.2
2017-May-13 23:30N 35°38' E 139°46'612.5
2017-May-13 23:01N 35°33' E 139°51'714.5
2017-May-13 22:31N 35°26' E 139°48'713.2
2017-May-13 22:01N 35°20' E 139°45'611.6
2017-May-13 21:31N 35°15' E 139°47'612.9
2017-May-13 21:01N 35°08' E 139°46'816.5
2017-May-13 20:31N 35°01' E 139°42'  

Dump ship's entire track history